createdAt,value
2018-03-08T00:00:20.218Z,100338.45
2018-03-08T00:02:49.511Z,100341.82
2018-03-08T00:05:18.758Z,100348.91
2018-03-08T00:07:48.245Z,100362.36
2018-03-08T00:10:17.566Z,100357.50
2018-03-08T00:12:46.918Z,100358.78
2018-03-08T00:15:16.357Z,100357.50
2018-03-08T00:17:45.857Z,100335.75
2018-03-08T00:20:15.271Z,100329.59
2018-03-08T00:22:44.391Z,100333.39
2018-03-08T00:25:13.825Z,100326.65
2018-03-08T00:27:43.329Z,100332.92
2018-03-08T00:30:12.732Z,100322.73
2018-03-08T00:32:42.195Z,100317.87
2018-03-08T00:35:11.981Z,100307.90
2018-03-08T00:37:41.574Z,100304.89
2018-03-08T00:40:10.549Z,100307.76
2018-03-08T00:42:40.062Z,100301.02
2018-03-08T00:45:09.338Z,100302.06
2018-03-08T00:47:38.657Z,100302.67
2018-03-08T00:50:07.857Z,100295.05
2018-03-08T00:52:37.083Z,100298.20
2018-03-08T00:55:06.077Z,100282.34
2018-03-08T00:57:35.453Z,100284.77
2018-03-08T01:00:04.863Z,100277.78
2018-03-08T01:02:34.512Z,100284.13
2018-03-08T01:05:03.808Z,100282.15
2018-03-08T01:07:33.022Z,100284.11
2018-03-08T01:10:02.424Z,100281.92
2018-03-08T01:12:31.869Z,100285.13
2018-03-08T01:15:01.373Z,100286.96
2018-03-08T01:17:30.854Z,100278.48
2018-03-08T01:20:00.201Z,100269.64
2018-03-08T01:22:29.843Z,100274.53
2018-03-08T01:24:58.884Z,100271.89
2018-03-08T01:27:28.156Z,100278.00
2018-03-08T01:29:57.629Z,100284.34
2018-03-08T01:32:26.809Z,100293.66
2018-03-08T01:34:55.928Z,100294.13
2018-03-08T01:37:25.095Z,100292.58
2018-03-08T01:39:54.317Z,100293.82
2018-03-08T01:42:23.625Z,100297.27
2018-03-08T01:44:52.881Z,100304.61
2018-03-08T01:47:22.284Z,100313.02
2018-03-08T01:49:51.565Z,100321.69
2018-03-08T01:52:21.114Z,100327.23
2018-03-08T01:54:50.237Z,100337.20
2018-03-08T01:57:19.755Z,100336.95
2018-03-08T01:59:49.163Z,100339.41
2018-03-08T02:02:18.508Z,100333.11
2018-03-08T02:04:47.697Z,100329.72
2018-03-08T02:07:17.036Z,100327.84
2018-03-08T02:09:46.060Z,100334.55
2018-03-08T02:12:16.567Z,100337.83
2018-03-08T02:14:46.144Z,100329.77
2018-03-08T02:17:15.429Z,100326.52
2018-03-08T02:19:44.937Z,100334.42
2018-03-08T02:22:13.961Z,100333.49
2018-03-08T02:24:43.342Z,100333.23
2018-03-08T02:27:12.529Z,100329.82
2018-03-08T02:29:41.987Z,100322.58
2018-03-08T02:32:11.304Z,100319.64
2018-03-08T02:34:40.667Z,100310.02
2018-03-08T02:37:10.044Z,100305.59
2018-03-08T02:39:39.594Z,100304.73
2018-03-08T02:42:08.658Z,100304.94
2018-03-08T02:44:38.027Z,100305.78
2018-03-08T02:47:07.349Z,100301.49
2018-03-08T02:49:36.604Z,100304.83
2018-03-08T02:52:05.898Z,100304.09
2018-03-08T02:54:35.560Z,100304.59
2018-03-08T02:57:04.962Z,100301.75
2018-03-08T02:59:34.158Z,100302.98
2018-03-08T03:02:03.581Z,100303.23
2018-03-08T03:04:33.065Z,100297.69
2018-03-08T03:07:02.630Z,100296.16
2018-03-08T03:09:31.705Z,100297.38
2018-03-08T03:12:00.984Z,100298.72
2018-03-08T03:14:30.209Z,100304.86
2018-03-08T03:17:00.054Z,100305.80
2018-03-08T03:19:29.396Z,100304.25
2018-03-08T03:21:58.741Z,100290.44
2018-03-08T03:24:28.015Z,100290.00
2018-03-08T03:26:57.285Z,100283.63
2018-03-08T03:29:26.585Z,100287.52
2018-03-08T03:31:55.879Z,100284.70
2018-03-08T03:34:25.295Z,100285.77
2018-03-08T03:36:54.665Z,100286.96
2018-03-08T03:39:24.347Z,100284.08
2018-03-08T03:41:53.722Z,100284.11
2018-03-08T03:44:22.865Z,100277.64
2018-03-08T03:46:51.933Z,100272.38
2018-03-08T03:49:21.223Z,100270.06
2018-03-08T03:51:50.534Z,100270.24
2018-03-08T03:54:19.783Z,100277.16
2018-03-08T03:56:49.025Z,100269.91
2018-03-08T03:59:18.005Z,100276.00
2018-03-08T04:01:47.278Z,100276.31
2018-03-08T04:04:16.550Z,100275.03
2018-03-08T04:06:45.788Z,100273.34
2018-03-08T04:09:14.989Z,100276.61
2018-03-08T04:11:44.506Z,100271.75
2018-03-08T04:14:13.963Z,100276.02
2018-03-08T04:16:43.077Z,100276.02
2018-03-08T04:19:12.605Z,100274.90
2018-03-08T04:21:41.981Z,100278.39
2018-03-08T04:24:11.369Z,100270.91
2018-03-08T04:26:40.729Z,100270.14
2018-03-08T04:29:10.012Z,100263.00
2018-03-08T04:31:39.630Z,100256.95
2018-03-08T04:34:09.225Z,100260.19
2018-03-08T04:36:38.525Z,100255.02
2018-03-08T04:39:07.976Z,100256.16
2018-03-08T04:41:37.537Z,100249.30
2018-03-08T04:44:07.000Z,100245.97
2018-03-08T04:46:36.117Z,100243.67
2018-03-08T04:49:05.665Z,100238.86
2018-03-08T04:51:35.089Z,100244.17
2018-03-08T04:54:04.458Z,100244.50
2018-03-08T04:56:33.907Z,100237.26
2018-03-08T04:59:02.869Z,100249.08
2018-03-08T05:01:31.821Z,100240.19
2018-03-08T05:04:01.101Z,100238.75
2018-03-08T05:06:30.502Z,100238.92
2018-03-08T05:08:59.937Z,100236.26
2018-03-08T05:11:29.054Z,100242.38
2018-03-08T05:13:58.244Z,100240.64
2018-03-08T05:16:27.841Z,100234.58
2018-03-08T05:18:57.257Z,100240.70
2018-03-08T05:21:26.673Z,100235.34
2018-03-08T05:23:56.165Z,100237.38
2018-03-08T05:26:25.401Z,100237.20
2018-03-08T05:28:54.724Z,100241.41
2018-03-08T05:31:24.383Z,100235.39
2018-03-08T05:33:53.468Z,100240.79
2018-03-08T05:36:22.729Z,100247.14
2018-03-08T05:38:52.233Z,100241.14
2018-03-08T05:41:21.418Z,100250.65
2018-03-08T05:43:50.528Z,100242.77
2018-03-08T05:46:19.931Z,100252.88
2018-03-08T05:48:49.066Z,100252.06
2018-03-08T05:51:18.086Z,100242.66
2018-03-08T05:53:47.105Z,100249.65
2018-03-08T05:56:16.253Z,100247.49
2018-03-08T05:58:45.401Z,100244.44
2018-03-08T06:01:21.176Z,100238.10
2018-03-08T06:03:50.410Z,100237.27
2018-03-08T06:06:19.995Z,100231.56
2018-03-08T06:08:49.549Z,100224.16
2018-03-08T06:11:19.021Z,100219.11
2018-03-08T06:13:48.077Z,100217.28
2018-03-08T06:16:17.362Z,100218.66
2018-03-08T06:18:46.427Z,100214.66
2018-03-08T06:21:15.614Z,100205.66
2018-03-08T06:23:44.929Z,100216.91
2018-03-08T06:26:14.284Z,100215.59
2018-03-08T06:28:43.990Z,100225.69
2018-03-08T06:31:13.605Z,100222.72
2018-03-08T06:33:43.051Z,100227.61
2018-03-08T06:36:12.576Z,100224.08
2018-03-08T06:38:41.909Z,100223.02
2018-03-08T06:41:11.045Z,100224.72
2018-03-08T06:43:40.575Z,100223.90
2018-03-08T06:46:10.232Z,100224.85
2018-03-08T06:48:39.515Z,100227.56
2018-03-08T06:51:08.655Z,100228.09
2018-03-08T06:53:37.653Z,100228.47
2018-03-08T06:56:07.068Z,100214.96
2018-03-08T06:58:36.204Z,100204.28
2018-03-08T07:01:05.473Z,100203.48
2018-03-08T07:03:34.661Z,100196.44
2018-03-08T07:06:03.776Z,100196.44
2018-03-08T07:08:33.078Z,100185.84
2018-03-08T07:11:02.152Z,100184.73
2018-03-08T07:13:31.499Z,100183.51
2018-03-08T07:16:00.945Z,100181.23
2018-03-08T07:18:30.459Z,100181.19
2018-03-08T07:20:59.909Z,100188.66
2018-03-08T07:23:29.133Z,100176.61
2018-03-08T07:25:58.356Z,100175.47
2018-03-08T07:28:27.762Z,100180.41
2018-03-08T07:30:58.100Z,100174.55
2018-03-08T07:33:27.495Z,100177.95
2018-03-08T07:35:56.890Z,100177.86
2018-03-08T07:38:26.025Z,100181.73
2018-03-08T07:40:55.647Z,100180.69
2018-03-08T07:43:24.893Z,100188.75
2018-03-08T07:45:54.047Z,100196.06
2018-03-08T07:48:23.302Z,100181.83
2018-03-08T07:50:52.636Z,100187.83
2018-03-08T07:53:21.889Z,100174.94
2018-03-08T07:55:51.338Z,100183.20
2018-03-08T07:58:20.627Z,100182.23
2018-03-08T08:00:50.010Z,100167.20
2018-03-08T08:03:19.407Z,100174.52
2018-03-08T08:05:59.982Z,100167.72
2018-03-08T08:08:37.112Z,100178.38
2018-03-08T08:11:06.366Z,100175.02
2018-03-08T08:13:35.894Z,100154.95
2018-03-08T08:16:05.275Z,100153.14
2018-03-08T08:18:34.929Z,100173.43
2018-03-08T08:21:04.249Z,100176.79
2018-03-08T08:23:33.838Z,100166.11
2018-03-08T08:26:03.117Z,100163.30
2018-03-08T08:28:32.734Z,100170.78
2018-03-08T08:31:02.039Z,100162.69
2018-03-08T08:33:31.602Z,100165.94
2018-03-08T08:36:01.164Z,100145.98
2018-03-08T08:38:30.438Z,100145.95
2018-03-08T08:40:59.697Z,100164.41
2018-03-08T08:43:29.109Z,100153.14
2018-03-08T08:45:58.409Z,100166.94
2018-03-08T08:48:27.914Z,100157.16
2018-03-08T08:50:57.268Z,100170.46
2018-03-08T08:53:26.685Z,100142.31
2018-03-08T08:55:55.931Z,100143.92
2018-03-08T08:58:25.539Z,100156.78
2018-03-08T09:00:54.501Z,100149.73
2018-03-08T09:03:23.832Z,100130.72
2018-03-08T09:05:53.121Z,100137.33
2018-03-08T09:08:22.427Z,100150.39
2018-03-08T09:10:51.842Z,100140.45
2018-03-08T09:13:20.987Z,100150.22
2018-03-08T09:15:50.069Z,100168.44
2018-03-08T09:18:19.069Z,100147.82
2018-03-08T09:20:48.590Z,100145.70
2018-03-08T09:23:17.780Z,100164.33
2018-03-08T09:25:47.151Z,100143.59
2018-03-08T09:28:16.542Z,100145.73
2018-03-08T09:30:46.030Z,100141.53
2018-03-08T09:33:15.499Z,100142.09
2018-03-08T09:35:44.633Z,100141.41
2018-03-08T09:38:13.893Z,100152.91
2018-03-08T09:40:43.796Z,100139.70
2018-03-08T09:43:13.208Z,100140.12
2018-03-08T09:45:42.563Z,100144.86
2018-03-08T09:48:11.763Z,100141.69
2018-03-08T09:50:41.629Z,100157.42
2018-03-08T09:53:11.637Z,100132.52
2018-03-08T09:55:41.571Z,100133.84
2018-03-08T09:58:11.415Z,100138.86
2018-03-08T10:00:40.931Z,100144.11
2018-03-08T10:03:10.435Z,100148.14
2018-03-08T10:05:39.718Z,100152.31
2018-03-08T10:08:09.642Z,100144.33
2018-03-08T10:10:38.851Z,100146.77
2018-03-08T10:13:08.410Z,100137.27
2018-03-08T10:15:37.857Z,100167.88
2018-03-08T10:18:07.469Z,100163.83
2018-03-08T10:20:36.718Z,100170.47
2018-03-08T10:23:06.299Z,100145.59
2018-03-08T10:25:35.464Z,100160.25
2018-03-08T10:28:05.693Z,100168.55
2018-03-08T10:30:35.342Z,100147.47
2018-03-08T10:33:04.716Z,100150.14
2018-03-08T10:35:34.364Z,100147.76
2018-03-08T10:38:03.753Z,100135.90
2018-03-08T10:43:02.300Z,100135.66
2018-03-08T10:45:31.561Z,100138.14
2018-03-08T10:48:00.713Z,100153.16
2018-03-08T10:50:30.074Z,100158.28
2018-03-08T10:52:59.453Z,100148.91
2018-03-08T10:55:28.557Z,100159.52
2018-03-08T10:57:57.822Z,100153.42
2018-03-08T11:00:32.892Z,100149.90
2018-03-08T11:03:06.980Z,100139.00
2018-03-08T11:05:41.048Z,100171.03
2018-03-08T11:08:10.685Z,100156.38
2018-03-08T11:10:39.943Z,100163.98
2018-03-08T11:13:09.425Z,100155.51
2018-03-08T11:15:38.961Z,100168.48
2018-03-08T11:18:08.101Z,100178.18
2018-03-08T11:20:37.301Z,100165.02
2018-03-08T11:23:06.543Z,100165.53
2018-03-08T11:25:35.688Z,100174.21
2018-03-08T11:28:05.107Z,100163.82
2018-03-08T11:30:34.537Z,100181.80
2018-03-08T11:33:04.311Z,100159.28
2018-03-08T11:35:33.610Z,100174.11
2018-03-08T11:38:02.879Z,100159.47
2018-03-08T11:40:32.137Z,100169.99
2018-03-08T11:43:01.515Z,100195.05
2018-03-08T11:45:30.859Z,100175.81
2018-03-08T11:48:00.018Z,100183.13
2018-03-08T11:50:29.631Z,100181.12
2018-03-08T11:52:59.025Z,100190.64
2018-03-08T11:55:28.565Z,100200.68
2018-03-08T11:57:57.685Z,100171.42
2018-03-08T12:00:26.838Z,100180.04
2018-03-08T12:02:56.078Z,100186.70
2018-03-08T12:05:25.742Z,100196.95
2018-03-08T12:07:54.739Z,100195.57
2018-03-08T12:10:24.097Z,100195.44
2018-03-08T12:12:53.472Z,100208.12
2018-03-08T12:15:22.802Z,100219.98
2018-03-08T12:17:52.644Z,100216.03
2018-03-08T12:20:21.846Z,100199.86
2018-03-08T12:22:51.189Z,100208.30
2018-03-08T12:25:20.282Z,100197.94
2018-03-08T12:27:49.679Z,100208.36
2018-03-08T12:30:18.847Z,100216.70
2018-03-08T12:32:48.332Z,100211.55
2018-03-08T12:35:17.753Z,100221.25
2018-03-08T12:37:47.226Z,100206.17
2018-03-08T12:40:16.779Z,100205.11
2018-03-08T12:42:45.965Z,100213.34
2018-03-08T12:45:15.313Z,100205.81
2018-03-08T12:47:44.925Z,100210.89
2018-03-08T12:50:14.481Z,100218.73
2018-03-08T12:52:44.013Z,100225.94
2018-03-08T12:55:13.454Z,100218.41
2018-03-08T12:57:42.606Z,100233.73
2018-03-08T13:00:11.911Z,100238.28
2018-03-08T13:02:41.303Z,100251.06
2018-03-08T13:05:10.622Z,100259.65
2018-03-08T13:07:39.809Z,100259.73
2018-03-08T13:10:09.239Z,100263.45
2018-03-08T13:12:38.502Z,100265.89
2018-03-08T13:15:07.614Z,100277.08
2018-03-08T13:17:36.950Z,100262.58
2018-03-08T13:20:06.470Z,100269.53
2018-03-08T13:22:35.854Z,100276.84
2018-03-08T13:25:05.239Z,100274.27
2018-03-08T13:27:34.732Z,100288.04
2018-03-08T13:30:04.026Z,100299.90
2018-03-08T13:32:33.242Z,100272.33
2018-03-08T13:35:02.583Z,100285.46
2018-03-08T13:37:31.917Z,100294.71
2018-03-08T13:40:01.486Z,100278.06
2018-03-08T13:42:31.359Z,100272.04
2018-03-08T13:45:00.660Z,100272.25
2018-03-08T13:47:30.053Z,100303.48
2018-03-08T13:49:59.196Z,100290.94
2018-03-08T13:52:28.669Z,100308.72
2018-03-08T13:54:57.911Z,100300.55
2018-03-08T13:57:27.149Z,100293.57
2018-03-08T13:59:56.342Z,100279.86
2018-03-08T14:02:26.257Z,100286.58
2018-03-08T14:04:55.478Z,100295.09
2018-03-08T14:07:24.762Z,100284.47
2018-03-08T14:09:53.913Z,100292.55
2018-03-08T14:12:23.419Z,100291.46
2018-03-08T14:14:52.814Z,100314.31
2018-03-08T14:17:22.374Z,100307.06
2018-03-08T14:19:51.613Z,100311.36
2018-03-08T14:22:20.868Z,100306.90
2018-03-08T14:24:50.080Z,100309.11
2018-03-08T14:27:19.530Z,100316.30
2018-03-08T14:29:48.617Z,100291.28
2018-03-08T14:32:18.135Z,100313.70
2018-03-08T14:34:47.277Z,100303.59
2018-03-08T14:37:16.353Z,100318.08
2018-03-08T14:39:45.362Z,100319.81
2018-03-08T14:42:15.044Z,100328.02
2018-03-08T14:44:44.375Z,100339.78
2018-03-08T14:47:13.572Z,100328.27
2018-03-08T14:49:42.685Z,100336.08
2018-03-08T14:52:11.886Z,100346.07
2018-03-08T14:54:41.382Z,100343.95
2018-03-08T14:57:11.681Z,100333.31
2018-03-08T14:59:41.442Z,100365.58
2018-03-08T15:02:11.074Z,100381.12
2018-03-08T15:04:40.417Z,100350.22
2018-03-08T15:07:09.708Z,100374.38
2018-03-08T15:09:39.057Z,100374.95
2018-03-08T15:12:08.649Z,100386.97
2018-03-08T15:14:37.834Z,100391.93
2018-03-08T15:17:07.487Z,100386.63
2018-03-08T15:19:36.692Z,100397.16
2018-03-08T15:22:06.198Z,100399.13
2018-03-08T15:24:35.435Z,100407.89
2018-03-08T15:27:04.799Z,100417.32
2018-03-08T15:29:33.794Z,100416.70
2018-03-08T15:32:03.077Z,100421.52
2018-03-08T15:34:32.343Z,100423.34
2018-03-08T15:37:01.637Z,100425.55
2018-03-08T15:39:30.833Z,100433.19
2018-03-08T15:42:00.351Z,100440.32
2018-03-08T15:44:30.013Z,100437.45
2018-03-08T15:46:59.259Z,100443.42
2018-03-08T15:49:28.653Z,100440.58
2018-03-08T15:51:57.913Z,100452.91
2018-03-08T15:54:26.982Z,100459.06
2018-03-08T15:56:56.203Z,100459.86
2018-03-08T15:59:25.486Z,100464.15
2018-03-08T16:01:54.566Z,100476.20
2018-03-08T16:04:24.106Z,100470.19
2018-03-08T16:10:29.467Z,100477.49
2018-03-08T16:12:58.564Z,100489.04
2018-03-08T16:15:27.605Z,100493.83
2018-03-08T16:17:57.124Z,100496.86
2018-03-08T16:20:26.309Z,100497.47
2018-03-08T16:22:55.472Z,100496.52
2018-03-08T16:25:24.776Z,100506.62
2018-03-08T16:27:54.070Z,100512.96
2018-03-08T16:30:23.245Z,100525.25
2018-03-08T16:32:52.401Z,100530.37
2018-03-08T16:35:21.661Z,100539.20
2018-03-08T16:37:50.901Z,100536.38
2018-03-08T16:40:19.997Z,100544.31
2018-03-08T16:42:49.429Z,100546.95
2018-03-08T16:45:18.490Z,100557.08
2018-03-08T16:47:47.645Z,100561.03
2018-03-08T16:50:17.011Z,100566.66
2018-03-08T16:52:46.201Z,100570.23
2018-03-08T16:55:15.302Z,100575.08
2018-03-08T16:57:44.456Z,100576.73
2018-03-08T17:00:13.889Z,100584.83
2018-03-08T17:02:43.258Z,100591.83
2018-03-08T17:05:12.580Z,100587.83
2018-03-08T17:07:42.143Z,100597.77
2018-03-08T17:10:11.155Z,100604.28
2018-03-08T17:12:40.193Z,100606.58
2018-03-08T17:15:09.493Z,100607.33
2018-03-08T17:17:39.305Z,100612.72
2018-03-08T17:20:08.640Z,100614.30
2018-03-08T17:22:37.577Z,100628.61
2018-03-08T17:25:06.825Z,100634.03
2018-03-08T17:27:36.330Z,100643.64
2018-03-08T17:30:05.405Z,100645.61
2018-03-08T17:32:34.487Z,100655.91
2018-03-08T17:35:03.491Z,100662.66
2018-03-08T17:40:36.933Z,100670.34
2018-03-08T17:43:06.507Z,100673.81
2018-03-08T17:45:36.047Z,100678.52
2018-03-08T17:48:05.418Z,100685.34
2018-03-08T17:50:34.635Z,100674.16
2018-03-08T17:53:03.897Z,100680.41
2018-03-08T17:58:27.251Z,100687.08
2018-03-08T18:00:56.237Z,100693.90
2018-03-08T18:03:25.206Z,100698.39
2018-03-08T18:05:54.813Z,100705.56
2018-03-08T18:08:23.989Z,100711.73
2018-03-08T18:10:53.204Z,100711.08
2018-03-08T18:13:22.329Z,100720.20
2018-03-08T18:15:51.775Z,100731.00
2018-03-08T18:18:20.705Z,100731.11
2018-03-08T18:20:50.004Z,100732.11
2018-03-08T18:23:19.482Z,100728.92
2018-03-08T18:25:48.484Z,100731.26
2018-03-08T18:28:17.729Z,100739.75
2018-03-08T18:30:46.953Z,100743.99
2018-03-08T18:33:16.669Z,100745.52
2018-03-08T18:35:46.053Z,100744.72
2018-03-08T18:38:15.445Z,100747.08
2018-03-08T18:40:44.543Z,100759.81
2018-03-08T18:43:13.805Z,100768.13
2018-03-08T18:45:43.041Z,100770.58
2018-03-08T18:48:12.355Z,100780.44
2018-03-08T18:50:41.643Z,100789.27
2018-03-08T18:53:10.735Z,100790.72
2018-03-08T18:55:39.997Z,100799.46
2018-03-08T18:58:29.758Z,100808.39
2018-03-08T19:00:58.885Z,100809.56
2018-03-08T19:03:28.081Z,100813.08
2018-03-08T19:05:57.568Z,100820.63
2018-03-08T19:08:26.727Z,100829.28
2018-03-08T19:10:56.197Z,100831.06
2018-03-08T19:13:25.204Z,100843.13
2018-03-08T19:15:54.448Z,100839.20
2018-03-08T19:18:23.813Z,100842.33
2018-03-08T19:20:53.310Z,100844.31
2018-03-08T19:23:22.567Z,100842.55
2018-03-08T19:25:51.809Z,100848.80
2018-03-08T19:28:21.786Z,100858.46
2018-03-08T19:30:51.026Z,100861.47
2018-03-08T19:33:20.136Z,100873.46
2018-03-08T19:35:49.374Z,100872.43
2018-03-08T19:38:18.427Z,100878.73
2018-03-08T19:40:47.821Z,100881.66
2018-03-08T19:43:16.937Z,100883.38
2018-03-08T19:45:46.085Z,100887.57
2018-03-08T19:48:15.227Z,100891.94
2018-03-08T19:50:44.398Z,100893.08
2018-03-08T19:53:13.422Z,100892.14
2018-03-08T19:55:42.809Z,100904.45
2018-03-08T19:58:12.114Z,100900.55
2018-03-08T20:00:41.082Z,100900.55
2018-03-08T20:03:10.255Z,100904.91
2018-03-08T20:05:39.569Z,100910.33
2018-03-08T20:08:08.777Z,100916.73
2018-03-08T20:10:37.954Z,100924.42
2018-03-08T20:13:07.001Z,100920.36
2018-03-08T20:15:36.309Z,100932.91
2018-03-08T20:18:05.582Z,100939.02
2018-03-08T20:20:34.697Z,100947.33
2018-03-08T20:23:04.031Z,100950.66
2018-03-08T20:25:33.329Z,100958.05
2018-03-08T20:28:02.589Z,100959.81
2018-03-08T20:30:32.197Z,100959.34
2018-03-08T20:33:01.293Z,100968.69
2018-03-08T20:35:30.637Z,100981.01
2018-03-08T20:38:00.104Z,100987.80
2018-03-08T20:40:29.615Z,100993.97
2018-03-08T20:42:58.853Z,100992.47
2018-03-08T20:45:28.305Z,101002.83
2018-03-08T20:47:57.710Z,101001.77
2018-03-08T20:50:27.948Z,101007.36
2018-03-08T20:52:57.143Z,101006.46
2018-03-08T20:55:26.279Z,101012.88
2018-03-08T20:57:55.381Z,101016.63
2018-03-08T21:00:24.524Z,101021.88
2018-03-08T21:02:53.759Z,101017.24
2018-03-08T21:05:22.861Z,101014.14
2018-03-08T21:07:52.018Z,101026.05
2018-03-08T21:10:21.046Z,101023.77
2018-03-08T21:12:50.298Z,101028.19
2018-03-08T21:15:19.775Z,101032.34
2018-03-08T21:17:48.969Z,101033.37
2018-03-08T21:20:18.243Z,101028.52
2018-03-08T21:22:47.352Z,101037.65
2018-03-08T21:25:16.681Z,101033.34
2018-03-08T21:27:46.370Z,101037.37
2018-03-08T21:30:15.613Z,101037.66
2018-03-08T21:32:44.905Z,101033.20
2018-03-08T21:35:14.159Z,101040.69
2018-03-08T21:37:43.412Z,101040.31
2018-03-08T21:40:12.623Z,101042.72
2018-03-08T21:42:41.723Z,101042.80
2018-03-08T21:45:10.919Z,101043.79
2018-03-08T21:47:40.311Z,101039.08
2018-03-08T21:50:09.761Z,101050.09
2018-03-08T21:52:39.117Z,101057.77
2018-03-08T21:55:08.621Z,101067.10
2018-03-08T21:57:37.724Z,101073.05
2018-03-08T22:00:07.031Z,101073.88
2018-03-08T22:02:36.591Z,101083.47
2018-03-08T22:05:05.835Z,101074.23
2018-03-08T22:07:35.166Z,101084.09
2018-03-08T22:10:04.325Z,101081.95
2018-03-08T22:12:33.538Z,101081.34
2018-03-08T22:15:02.825Z,101074.11
2018-03-08T22:17:32.129Z,101085.70
2018-03-08T22:20:01.373Z,101088.73
2018-03-08T22:22:30.634Z,101088.17
2018-03-08T22:24:59.823Z,101091.12
2018-03-08T22:27:28.892Z,101096.20
2018-03-08T22:29:58.097Z,101097.89
2018-03-08T22:32:27.462Z,101106.86
2018-03-08T22:34:56.635Z,101116.76
2018-03-08T22:37:25.954Z,101118.59
2018-03-08T22:39:55.117Z,101118.14
2018-03-08T22:42:24.329Z,101119.66
2018-03-08T22:44:53.613Z,101128.37
2018-03-08T22:47:23.109Z,101127.75
2018-03-08T22:49:52.375Z,101134.59
2018-03-08T22:52:21.829Z,101136.18
2018-03-08T22:54:51.402Z,101131.27
2018-03-08T22:57:22.480Z,101139.46
2018-03-08T22:59:52.039Z,101150.45
2018-03-08T23:02:36.058Z,101159.91
2018-03-08T23:05:05.586Z,101166.13
2018-03-08T23:07:34.790Z,101168.91
2018-03-08T23:10:03.990Z,101164.20
2018-03-08T23:12:33.443Z,101156.72
2018-03-08T23:15:02.865Z,101168.45
2018-03-08T23:17:32.136Z,101168.87
2018-03-08T23:20:01.287Z,101168.54
2018-03-08T23:22:30.749Z,101174.49
2018-03-08T23:25:00.102Z,101175.30
2018-03-08T23:27:29.653Z,101173.14
2018-03-08T23:29:58.930Z,101178.97
2018-03-08T23:32:27.957Z,101183.19
2018-03-08T23:34:57.199Z,101180.41
2018-03-08T23:37:26.273Z,101186.24
2018-03-08T23:39:55.745Z,101195.14
2018-03-08T23:42:25.157Z,101190.02
2018-03-08T23:44:54.398Z,101185.71
2018-03-08T23:47:23.243Z,101179.57
2018-03-08T23:49:52.679Z,101180.56
2018-03-08T23:52:22.085Z,101176.63
2018-03-08T23:54:51.485Z,101173.35
2018-03-08T23:57:20.850Z,101180.10
2018-03-08T23:59:50.098Z,101186.57
